createdAt,value
2024-02-24T00:00:11.904Z,99614.16
2024-02-24T00:05:15.974Z,99595.59
2024-02-24T00:10:18.011Z,99606.41
2024-02-24T00:15:20.006Z,99608.13
2024-02-24T00:20:22.082Z,99609.44
2024-02-24T00:25:24.126Z,99634.63
2024-02-24T00:30:26.036Z,99616.72
2024-02-24T00:35:30.306Z,99618.22
2024-02-24T00:40:32.363Z,99626.41
2024-02-24T00:45:34.543Z,99624.06
2024-02-24T00:50:36.610Z,99619.75
2024-02-24T00:55:38.756Z,99598.47
2024-02-24T01:00:40.763Z,99608.88
2024-02-24T01:05:43.742Z,99623.38
2024-02-24T01:10:45.962Z,99633.59
2024-02-24T01:15:47.961Z,99640.50
2024-02-24T01:20:50.210Z,99640.56
2024-02-24T01:25:52.417Z,99635.19
2024-02-24T01:30:54.481Z,99641.84
2024-02-24T01:35:56.662Z,99640.97
2024-02-24T01:40:58.633Z,99634.88
2024-02-24T01:46:01.386Z,99642.38
2024-02-24T01:51:04.105Z,99639.66
2024-02-24T01:56:10.562Z,99651.56
2024-02-24T02:01:13.077Z,99638.06
2024-02-24T02:06:15.554Z,99633.09
2024-02-24T02:11:17.954Z,99638.81
2024-02-24T02:16:20.725Z,99638.09
2024-02-24T02:21:23.485Z,99643.38
2024-02-24T02:26:25.571Z,99640.63
2024-02-24T02:31:27.598Z,99645.81
2024-02-24T02:36:29.535Z,99663.44
2024-02-24T02:41:31.579Z,99658.34
2024-02-24T02:46:33.658Z,99633.63
2024-02-24T02:51:35.660Z,99654.81
2024-02-24T02:56:37.702Z,99665.94
2024-02-24T03:01:39.682Z,99668.47
2024-02-24T03:06:41.742Z,99674.25
2024-02-24T03:11:45.728Z,99689.31
2024-02-24T03:16:49.656Z,99668.16
2024-02-24T03:21:51.668Z,99686.47
2024-02-24T03:26:53.752Z,99698.22
2024-02-24T03:31:55.744Z,99680.25
2024-02-24T03:36:57.672Z,99697.66
2024-02-24T03:41:59.634Z,99685.66
2024-02-24T03:47:01.762Z,99668.78
2024-02-24T03:52:03.873Z,99707.88
2024-02-24T03:57:06.071Z,99708.69
2024-02-24T04:02:08.061Z,99693.50
2024-02-24T04:07:10.124Z,99698.66
2024-02-24T04:12:12.160Z,99698.69
2024-02-24T04:17:14.297Z,99722.66
2024-02-24T04:22:16.277Z,99717.72
2024-02-24T04:27:18.289Z,99716.94
2024-02-24T04:32:20.311Z,99723.06
2024-02-24T04:37:23.529Z,99726.50
2024-02-24T04:42:26.057Z,99717.09
2024-02-24T04:47:29.954Z,99736.34
2024-02-24T04:52:32.142Z,99745.47
2024-02-24T04:57:34.149Z,99738.53
2024-02-24T05:02:36.151Z,99754.75
2024-02-24T05:07:38.443Z,99768.22
2024-02-24T05:12:49.256Z,99752.94
2024-02-24T05:17:51.616Z,99759.75
2024-02-24T05:22:53.702Z,99749.78
2024-02-24T05:27:55.749Z,99758.38
2024-02-24T05:32:59.073Z,99771.00
2024-02-24T05:38:01.465Z,99749.59
2024-02-24T05:43:04.520Z,99766.41
2024-02-24T05:48:06.787Z,99774.78
2024-02-24T05:53:10.839Z,99783.13
2024-02-24T05:58:14.041Z,99765.28
2024-02-24T06:03:16.063Z,99786.69
2024-02-24T06:08:18.227Z,99785.25
2024-02-24T06:13:20.248Z,99787.81
2024-02-24T06:18:22.720Z,99804.88
2024-02-24T06:23:24.834Z,99828.59
2024-02-24T06:28:26.849Z,99826.09
2024-02-24T06:33:28.858Z,99803.13
2024-02-24T06:38:30.903Z,99833.88
2024-02-24T06:43:32.885Z,99836.50
2024-02-24T06:48:34.957Z,99837.38
2024-02-24T06:53:37.007Z,99836.66
2024-02-24T06:58:39.206Z,99834.22
2024-02-24T07:03:41.256Z,99839.38
2024-02-24T07:08:43.713Z,99851.31
2024-02-24T07:13:45.783Z,99833.56
2024-02-24T07:18:47.841Z,99859.94
2024-02-24T07:23:51.622Z,99859.94
2024-02-24T07:28:53.704Z,99856.72
2024-02-24T07:33:56.136Z,99877.88
2024-02-24T07:38:58.822Z,99859.38
2024-02-24T07:44:00.985Z,99869.53
2024-02-24T07:49:03.433Z,99879.78
2024-02-24T07:54:05.545Z,99884.94
2024-02-24T07:59:07.538Z,99907.06
2024-02-24T08:04:09.657Z,99898.66
2024-02-24T08:09:14.720Z,99903.03
2024-02-24T08:14:17.107Z,99905.75
2024-02-24T08:19:19.092Z,99899.03
2024-02-24T08:24:21.141Z,99917.03
2024-02-24T08:29:23.154Z,99897.59
2024-02-24T08:34:25.575Z,99909.56
2024-02-24T08:39:27.689Z,99913.84
2024-02-24T08:44:29.929Z,99901.19
2024-02-24T08:49:32.053Z,99911.41
2024-02-24T08:54:34.482Z,99909.72
2024-02-24T08:59:36.552Z,99917.41
2024-02-24T09:04:41.744Z,99926.00
2024-02-24T09:09:43.754Z,99901.50
2024-02-24T09:14:45.771Z,99930.38
2024-02-24T09:19:47.901Z,99907.59
2024-02-24T09:24:50.173Z,99899.97
2024-02-24T09:29:52.230Z,99917.78
2024-02-24T09:34:54.546Z,99933.03
2024-02-24T09:39:56.564Z,99936.41
2024-02-24T09:45:00.650Z,99938.09
2024-02-24T09:50:02.945Z,99946.59
2024-02-24T09:55:08.337Z,99954.13
2024-02-24T10:00:10.965Z,99937.28
2024-02-24T10:05:17.983Z,99960.13
2024-02-24T10:10:20.243Z,99948.31
2024-02-24T10:15:22.277Z,99947.47
2024-02-24T10:20:24.811Z,99957.63
2024-02-24T10:25:27.012Z,99960.94
2024-02-24T10:30:29.358Z,99954.19
2024-02-24T10:35:34.766Z,99957.53
2024-02-24T10:40:37.699Z,99984.38
2024-02-24T10:45:39.697Z,99963.31
2024-02-24T10:50:42.598Z,99968.34
2024-02-24T10:55:45.878Z,99958.03
2024-02-24T11:00:52.298Z,99972.72
2024-02-24T11:05:54.606Z,99990.88
2024-02-24T11:11:04.679Z,99978.28
2024-02-24T11:16:07.369Z,99973.16
2024-02-24T11:21:09.374Z,99970.50
2024-02-24T11:26:17.552Z,99959.50
2024-02-24T11:31:42.597Z,99962.56
2024-02-24T11:36:45.298Z,99965.56
2024-02-24T11:41:48.303Z,99962.06
2024-02-24T11:46:50.513Z,99957.81
2024-02-24T11:51:52.882Z,99971.22
2024-02-24T11:56:55.116Z,99952.69
2024-02-24T12:01:57.212Z,99945.00
2024-02-24T12:07:00.265Z,99953.59
2024-02-24T12:12:02.674Z,99971.38
2024-02-24T12:17:05.052Z,99957.28
2024-02-24T12:22:10.601Z,99971.59
2024-02-24T12:27:13.163Z,99954.41
2024-02-24T12:32:15.607Z,99980.97
2024-02-24T12:37:17.728Z,99965.38
2024-02-24T12:42:19.899Z,99970.00
2024-02-24T12:47:22.426Z,99983.00
2024-02-24T12:52:24.765Z,99995.34
2024-02-24T12:57:27.069Z,99967.81
2024-02-24T13:02:30.326Z,99989.84
2024-02-24T13:07:32.750Z,99994.88
2024-02-24T13:12:35.163Z,99960.53
2024-02-24T13:17:37.472Z,99966.50
2024-02-24T13:22:42.552Z,99981.97
2024-02-24T13:27:45.633Z,100022.94
2024-02-24T13:32:48.067Z,100005.13
2024-02-24T13:37:50.098Z,99995.72
2024-02-24T13:42:52.926Z,99976.19
2024-02-24T13:47:55.470Z,99988.97
2024-02-24T13:52:57.669Z,99996.66
2024-02-24T13:58:04.404Z,100003.44
2024-02-24T14:03:09.552Z,100000.03
2024-02-24T14:08:39.578Z,100003.41
2024-02-24T14:13:44.777Z,100019.53
2024-02-24T14:18:47.258Z,100063.09
2024-02-24T14:23:49.624Z,100067.88
2024-02-24T14:29:00.830Z,100014.88
2024-02-24T14:34:04.488Z,100069.56
2024-02-24T14:39:07.175Z,100085.25
2024-02-24T14:44:09.306Z,100089.50
2024-02-24T14:49:12.334Z,100063.69
2024-02-24T14:54:14.496Z,100085.63
2024-02-24T14:59:16.723Z,100090.38
2024-02-24T15:04:21.581Z,100115.47
2024-02-24T15:09:23.754Z,100135.00
2024-02-24T15:14:26.305Z,100147.59
2024-02-24T15:19:28.500Z,100129.25
2024-02-24T15:24:30.472Z,100137.66
2024-02-24T15:29:32.579Z,100148.47
2024-02-24T15:34:34.988Z,100124.38
2024-02-24T15:39:37.122Z,100145.56
2024-02-24T15:44:39.324Z,100174.63
2024-02-24T15:49:41.660Z,100141.56
2024-02-24T15:54:43.963Z,100162.22
2024-02-24T15:59:46.124Z,100156.28
2024-02-24T16:04:49.680Z,100163.75
2024-02-24T16:09:51.835Z,100145.78
2024-02-24T16:14:54.279Z,100151.78
2024-02-24T16:19:57.104Z,100179.50
2024-02-24T16:24:59.425Z,100179.78
2024-02-24T16:30:01.787Z,100182.50
2024-02-24T16:35:04.384Z,100198.56
2024-02-24T16:40:10.799Z,100201.13
2024-02-24T16:45:13.002Z,100196.06
2024-02-24T16:50:19.369Z,100196.78
2024-02-24T16:55:25.701Z,100219.69
2024-02-24T17:00:27.748Z,100229.63
2024-02-24T17:05:29.900Z,100232.78
2024-02-24T17:10:34.007Z,100238.63
2024-02-24T17:15:36.350Z,100240.41
2024-02-24T17:20:38.513Z,100259.72
2024-02-24T17:25:40.660Z,100258.91
2024-02-24T17:30:42.715Z,100246.06
2024-02-24T17:35:46.318Z,100258.91
2024-02-24T17:40:48.610Z,100256.38
2024-02-24T17:45:50.767Z,100282.69
2024-02-24T17:50:53.362Z,100253.47
2024-02-24T17:55:55.504Z,100266.03
2024-02-24T18:00:57.712Z,100267.53
2024-02-24T18:05:59.924Z,100282.44
2024-02-24T18:11:01.993Z,100286.50
2024-02-24T18:16:06.512Z,100264.13
2024-02-24T18:21:15.432Z,100282.03
2024-02-24T18:26:17.681Z,100291.00
2024-02-24T18:31:19.780Z,100299.56
2024-02-24T18:36:22.314Z,100303.72
2024-02-24T18:41:24.427Z,100298.03
2024-02-24T18:46:26.494Z,100303.66
2024-02-24T18:51:29.189Z,100314.63
2024-02-24T18:56:31.317Z,100302.63
2024-02-24T19:01:33.950Z,100315.13
2024-02-24T19:06:36.235Z,100294.47
2024-02-24T19:11:38.861Z,100303.66
2024-02-24T19:16:40.921Z,100299.22
2024-02-24T19:21:43.307Z,100313.06
2024-02-24T19:26:54.341Z,100303.31
2024-02-24T19:31:56.424Z,100315.63
2024-02-24T19:36:58.544Z,100303.72
2024-02-24T19:42:00.785Z,100318.28
2024-02-24T19:47:05.941Z,100340.34
2024-02-24T19:52:08.211Z,100342.91
2024-02-24T19:57:10.448Z,100342.72
2024-02-24T20:02:12.597Z,100347.16
2024-02-24T20:07:15.366Z,100360.25
2024-02-24T20:12:21.492Z,100358.47
2024-02-24T20:17:25.141Z,100355.91
2024-02-24T20:22:27.288Z,100372.75
2024-02-24T20:27:29.444Z,100364.16
2024-02-24T20:32:31.531Z,100373.44
2024-02-24T20:37:34.618Z,100362.44
2024-02-24T20:42:36.704Z,100361.63
2024-02-24T20:47:38.985Z,100354.78
2024-02-24T20:52:41.455Z,100360.91
2024-02-24T20:57:43.433Z,100361.75
2024-02-24T21:02:45.621Z,100365.91
2024-02-24T21:07:47.664Z,100392.13
2024-02-24T21:12:49.629Z,100371.31
2024-02-24T21:17:51.879Z,100393.38
2024-02-24T21:22:54.075Z,100389.88
2024-02-24T21:27:57.128Z,100396.66
2024-02-24T21:32:59.823Z,100356.50
2024-02-24T21:38:03.053Z,100406.78
2024-02-24T21:43:06.015Z,100380.59
2024-02-24T21:48:08.824Z,100394.28
2024-02-24T21:53:10.989Z,100403.72
2024-02-24T21:58:12.968Z,100410.63
2024-02-24T22:03:15.095Z,100390.69
2024-02-24T22:08:20.196Z,100397.25
2024-02-24T22:13:22.535Z,100398.72
2024-02-24T22:18:24.892Z,100405.88
2024-02-24T22:23:27.396Z,100394.75
2024-02-24T22:28:29.448Z,100379.19
2024-02-24T22:33:34.182Z,100385.25
2024-02-24T22:38:36.879Z,100371.00
2024-02-24T22:43:39.276Z,100382.81
2024-02-24T22:48:41.835Z,100380.19
2024-02-24T22:53:44.138Z,100408.47
2024-02-24T22:58:46.853Z,100410.88
2024-02-24T23:03:48.974Z,100361.78
2024-02-24T23:08:51.082Z,100394.09
2024-02-24T23:13:57.685Z,100407.88
2024-02-24T23:19:00.224Z,100393.22
2024-02-24T23:24:06.463Z,100391.59
2024-02-24T23:29:13.624Z,100375.47
2024-02-24T23:34:15.871Z,100395.97
2024-02-24T23:39:30.954Z,100282.38
2024-02-24T23:44:33.170Z,100191.88
2024-02-24T23:49:35.223Z,100261.00
2024-02-24T23:54:37.210Z,100382.50
2024-02-24T23:59:40.240Z,100385.84
